Time;durP1;ratioP1;P1;durP2;ratioP2;P2;SDS_P1;SDS_P2;PMS_P1;PMS_P2;Temp;Humidity;BMP_temperature;BMP_pressure;BME280_temperature;BME280_humidity;BME280_pressure;Samples;Min_cycle;Max_cycle;Signal;HPM_P1;HPM_P2
2023/11/29 00:00:32;;;;;;;9.90;6.20;;;;;;;11.69;50.63;98052.55;107949;1254;60336;-67
2023/11/29 00:02:59;;;;;;;13.00;7.70;;;;;;;11.61;50.73;98051.58;108040;1254;73789;-66
2023/11/29 00:05:27;;;;;;;9.30;6.40;;;;;;;11.48;50.89;98050.36;108037;1254;68694;-67
2023/11/29 00:08:07;;;;;;;12.00;5.90;;;;;;;11.42;50.85;98049.22;108064;1259;71448;-68
2023/11/29 00:10:34;;;;;;;9.00;6.50;;;;;;;11.24;51.28;98048.27;108002;1254;60874;-67
2023/11/29 00:13:02;;;;;;;10.30;5.90;;;;;;;11.20;51.30;98050.73;107997;1254;60408;-67
2023/11/29 00:15:29;;;;;;;13.10;6.80;;;;;;;11.12;51.52;98040.90;107980;1254;73833;-68
2023/11/29 00:17:57;;;;;;;9.20;6.30;;;;;;;11.12;51.44;98043.00;108001;1254;70131;-67
2023/11/29 00:20:24;;;;;;;11.80;6.20;;;;;;;11.37;50.73;98034.38;108060;1257;73052;-67
2023/11/29 00:22:52;;;;;;;9.60;6.30;;;;;;;11.01;51.42;98038.54;108039;1254;60854;-67
2023/11/29 00:25:19;;;;;;;8.50;4.10;;;;;;;11.13;51.16;98037.68;108003;1254;60322;-67
2023/11/29 00:27:47;;;;;;;12.30;5.70;;;;;;;11.27;50.68;98032.98;108010;1254;73827;-67
2023/11/29 00:30:14;;;;;;;9.10;5.80;;;;;;;11.27;50.46;98029.61;107899;1260;68939;-67
2023/11/29 00:32:42;;;;;;;7.50;4.70;;;;;;;11.58;49.57;98026.46;108011;1254;72513;-67
2023/11/29 00:35:09;;;;;;;9.50;5.20;;;;;;;11.31;49.96;98025.66;107987;1254;60414;-66
2023/11/29 00:37:37;;;;;;;8.00;5.00;;;;;;;11.27;49.70;98017.33;107997;1254;60309;-66
2023/11/29 00:40:05;;;;;;;9.20;5.40;;;;;;;11.22;49.74;98016.31;107987;1254;73996;-67
2023/11/29 00:42:33;;;;;;;8.60;4.90;;;;;;;11.52;48.77;98010.23;107869;1260;70331;-67
2023/11/29 00:45:01;;;;;;;11.50;4.50;;;;;;;11.40;48.87;98008.13;107991;1258;71064;-66
2023/11/29 00:47:28;;;;;;;6.70;4.30;;;;;;;11.37;48.78;98012.91;107836;1257;60539;-66
2023/11/29 00:49:56;;;;;;;6.60;4.30;;;;;;;11.35;48.61;98000.92;107871;1254;60069;-66
2023/11/29 00:52:23;;;;;;;4.20;3.20;;;;;;;11.39;48.32;98004.28;107884;1254;71974;-66
2023/11/29 00:54:51;;;;;;;8.70;3.70;;;;;;;11.30;48.37;97998.30;108030;1254;69936;-66
2023/11/29 00:57:20;;;;;;;5.50;3.10;;;;;;;11.08;48.72;98000.63;107970;1256;72679;-66
2023/11/29 00:59:48;;;;;;;4.80;3.00;;;;;;;11.21;48.21;97989.89;107975;1258;60894;-67
2023/11/29 01:02:15;;;;;;;2.60;2.20;;;;;;;10.91;48.67;97987.82;107843;1254;60148;-67
2023/11/29 01:04:43;;;;;;;4.30;2.80;;;;;;;10.40;49.82;97984.39;107856;1254;73974;-66
2023/11/29 01:07:10;;;;;;;3.20;2.80;;;;;;;10.92;48.72;97978.99;108049;1257;70116;-66
2023/11/29 01:09:38;;;;;;;3.70;2.70;;;;;;;10.80;48.87;97974.38;108047;1254;72358;-66
2023/11/29 01:12:05;;;;;;;3.30;2.20;;;;;;;10.49;49.59;97973.13;108049;1255;59563;-67
2023/11/29 01:14:33;;;;;;;4.90;2.20;;;;;;;10.42;49.59;97971.50;107847;1254;60414;-65
2023/11/29 01:17:00;;;;;;;3.20;2.30;;;;;;;10.60;49.25;97964.59;107798;1254;72650;-68
2023/11/29 01:19:28;;;;;;;3.20;2.20;;;;;;;10.73;48.88;97963.87;108000;1259;69067;-67
2023/11/29 01:21:55;;;;;;;3.10;2.20;;;;;;;10.47;49.46;97957.10;107974;1259;72344;-68
2023/11/29 01:24:22;;;;;;;1.90;1.70;;;;;;;10.53;49.22;97958.42;107983;1254;60981;-66
2023/11/29 01:26:50;;;;;;;2.60;2.00;;;;;;;10.45;49.37;97948.48;108033;1254;60322;-67
2023/11/29 01:29:19;;;;;;;2.90;2.10;;;;;;;10.60;49.21;97943.55;108012;1253;72543;-67
2023/11/29 01:31:47;;;;;;;2.20;1.70;;;;;;;10.61;49.00;97941.36;107990;1254;69309;-67
2023/11/29 01:34:14;;;;;;;3.20;1.70;;;;;;;10.42;49.30;97947.12;107967;1254;71294;-67
2023/11/29 01:36:45;;;;;;;1.70;1.60;;;;;;;10.10;50.16;97937.55;108014;1254;60952;-67
2023/11/29 01:39:14;;;;;;;3.20;2.00;;;;;;;10.30;49.66;97929.18;108041;1254;60070;-66
2023/11/29 01:41:42;;;;;;;2.60;1.70;;;;;;;10.36;49.47;97925.77;108065;1259;73257;-67
2023/11/29 01:44:09;;;;;;;2.40;1.60;;;;;;;10.26;49.68;97921.20;107892;1254;70241;-67
2023/11/29 01:46:37;;;;;;;2.60;1.70;;;;;;;9.96;50.30;97918.05;108021;1254;72862;-67
2023/11/29 01:49:05;;;;;;;3.00;2.00;;;;;;;10.26;49.67;97913.86;107756;1254;61318;-66
2023/11/29 01:51:32;;;;;;;2.10;1.60;;;;;;;10.15;49.84;97910.40;107958;1259;60624;-67
2023/11/29 01:54:01;;;;;;;2.20;1.70;;;;;;;10.08;49.93;97910.71;107963;1254;76028;-66
2023/11/29 01:56:29;;;;;;;3.10;2.10;;;;;;;10.08;50.06;97907.59;107840;1254;68992;-66
2023/11/29 01:58:56;;;;;;;2.00;1.80;;;;;;;10.33;49.41;97896.52;107842;1257;72680;-66
2023/11/29 02:01:24;;;;;;;2.90;2.40;;;;;;;10.28;49.52;97892.30;107853;1254;60786;-67
2023/11/29 02:03:52;;;;;;;2.40;2.10;;;;;;;10.36;49.41;97891.26;108035;1254;60306;-66
2023/11/29 02:06:20;;;;;;;3.00;2.10;;;;;;;10.55;48.89;97882.30;108008;1254;71648;-65
2023/11/29 02:08:48;;;;;;;2.90;2.50;;;;;;;10.32;49.42;97879.91;108037;1254;70500;-67
2023/11/29 02:11:17;;;;;;;2.40;2.10;;;;;;;10.50;49.06;97877.77;107900;1254;72091;-66
2023/11/29 02:13:45;;;;;;;2.80;2.10;;;;;;;10.23;49.66;97867.61;108123;1254;60563;-66
2023/11/29 02:16:12;;;;;;;2.80;2.30;;;;;;;10.40;49.42;97867.98;108085;1254;60536;-66
2023/11/29 02:18:40;;;;;;;3.30;2.30;;;;;;;10.50;49.12;97863.54;108064;1254;73816;-66
2023/11/29 02:21:07;;;;;;;3.40;3.10;;;;;;;10.21;49.69;97865.45;108086;1254;70094;-66
2023/11/29 02:23:40;;;;;;;4.40;3.10;;;;;;;10.17;49.97;97858.38;108069;1256;71004;-66
2023/11/29 02:26:08;;;;;;;3.90;3.00;;;;;;;10.35;49.56;97850.66;107869;1254;60254;-66
2023/11/29 02:28:35;;;;;;;4.00;2.20;;;;;;;10.22;49.86;97847.84;108049;1254;60188;-66
2023/11/29 02:33:43;;;;;;;3.30;2.40;;;;;;;7.56;57.41;97841.69;104808;1294;600000;-67
2023/11/29 02:36:10;;;;;;;3.30;2.80;;;;;;;8.81;54.05;97839.63;107315;1267;59145;-67
2023/11/29 02:38:36;;;;;;;4.90;2.30;;;;;;;9.18;52.87;97824.46;107307;1265;59600;-67
2023/11/29 02:41:03;;;;;;;3.00;2.60;;;;;;;9.37;52.45;97822.44;107258;1267;59382;-67
2023/11/29 02:43:30;;;;;;;3.60;2.70;;;;;;;9.62;51.58;97814.41;107328;1267;59299;-67
2023/11/29 02:45:56;;;;;;;3.60;2.90;;;;;;;9.55;51.73;97812.75;107260;1264;146116;-67
2023/11/29 02:48:23;;;;;;;4.00;2.90;;;;;;;9.58;51.80;97805.41;107450;1264;59865;-67
2023/11/29 02:50:50;;;;;;;4.70;3.20;;;;;;;9.54;51.82;97806.20;107455;1263;59392;-66
2023/11/29 02:53:17;;;;;;;7.20;3.80;;;;;;;9.53;51.93;97797.54;107459;1264;72147;-67
2023/11/29 02:55:43;;;;;;;6.00;4.10;;;;;;;9.46;52.09;97800.80;107476;1264;70143;-67
2023/11/29 02:58:10;;;;;;;4.60;3.00;;;;;;;9.64;51.61;97798.11;108279;1251;72452;-67
2023/11/29 03:00:37;;;;;;;5.30;3.10;;;;;;;9.71;51.67;97794.31;108270;1251;59102;-67
2023/11/29 03:03:03;;;;;;;5.70;3.50;;;;;;;9.80;51.15;97790.35;108255;1251;59214;-67
2023/11/29 03:05:30;;;;;;;5.80;4.20;;;;;;;9.85;51.12;97792.95;108202;1251;71600;-67
2023/11/29 03:07:56;;;;;;;7.50;3.60;;;;;;;9.83;51.11;97789.80;108295;1251;59528;-67
2023/11/29 03:10:23;;;;;;;5.00;3.30;;;;;;;9.57;51.78;97801.45;108203;1251;61333;-67
2023/11/29 03:12:49;;;;;;;5.20;3.90;;;;;;;9.48;52.12;97782.80;108249;1254;61330;-66
2023/11/29 03:15:16;;;;;;;8.30;5.40;;;;;;;9.46;52.02;97779.09;108308;1253;59496;-67
2023/11/29 03:17:42;;;;;;;9.10;5.00;;;;;;;9.46;52.14;97776.30;108184;1256;72882;-67
2023/11/29 03:20:09;;;;;;;8.60;5.80;;;;;;;9.42;51.99;97775.64;108199;1254;70076;-67
2023/11/29 03:22:36;;;;;;;9.20;5.60;;;;;;;9.39;52.11;97767.45;108347;1252;72550;-67
2023/11/29 03:25:03;;;;;;;5.70;4.50;;;;;;;9.47;51.82;97770.59;108187;1253;59512;-67
2023/11/29 03:27:30;;;;;;;6.20;4.70;;;;;;;9.42;51.97;97768.65;108232;1253;60450;-67
2023/11/29 03:29:57;;;;;;;5.20;3.50;;;;;;;9.63;51.49;97765.61;108191;1252;72948;-67
2023/11/29 03:32:26;;;;;;;3.60;3.20;;;;;;;9.34;52.04;97768.89;108170;1254;69202;-67
2023/11/29 03:34:54;;;;;;;4.30;3.50;;;;;;;9.70;51.26;97761.95;108235;1253;71496;-67
2023/11/29 03:37:21;;;;;;;3.80;3.40;;;;;;;9.48;51.63;97764.19;108217;1253;61031;-67
2023/11/29 03:39:48;;;;;;;3.90;3.50;;;;;;;9.59;51.39;97755.02;108257;1253;60276;-67
2023/11/29 03:42:15;;;;;;;5.20;3.90;;;;;;;9.56;51.56;97753.67;108177;1254;73069;-67
2023/11/29 03:44:42;;;;;;;3.50;2.90;;;;;;;9.54;51.47;97748.42;108101;1254;70302;-67
2023/11/29 03:47:08;;;;;;;4.40;3.10;;;;;;;9.60;51.39;97750.77;108138;1253;72547;-67
2023/11/29 03:49:35;;;;;;;4.20;3.00;;;;;;;9.58;51.47;97743.23;108113;1254;59621;-67
2023/11/29 03:52:02;;;;;;;3.00;2.60;;;;;;;9.54;51.39;97738.03;108219;1253;60801;-67
2023/11/29 03:54:28;;;;;;;2.80;2.30;;;;;;;9.61;51.35;97739.86;108128;1254;72901;-67
2023/11/29 03:56:55;;;;;;;3.50;2.80;;;;;;;9.42;51.81;97731.72;108224;1254;70137;-67
2023/11/29 03:59:22;;;;;;;7.30;3.60;;;;;;;9.43;51.64;97728.65;108142;1253;72623;-67
2023/11/29 04:01:48;;;;;;;3.50;2.80;;;;;;;9.32;52.05;97728.73;108041;1254;61347;-67
2023/11/29 04:04:15;;;;;;;5.90;3.10;;;;;;;9.43;51.76;97725.89;108041;1254;60392;-67
2023/11/29 04:06:42;;;;;;;3.20;2.70;;;;;;;9.59;51.28;97721.95;108070;1254;72876;-67
2023/11/29 04:09:09;;;;;;;4.20;2.80;;;;;;;9.75;50.81;97717.27;108025;1253;70188;-67
2023/11/29 04:11:36;;;;;;;3.00;2.70;;;;;;;9.68;50.94;97713.06;108025;1254;72646;-67
2023/11/29 04:14:02;;;;;;;3.10;2.40;;;;;;;9.61;51.23;97710.09;108040;1254;61152;-67
2023/11/29 04:16:29;;;;;;;4.20;2.00;;;;;;;9.71;50.92;97707.55;108137;1257;60352;-66
2023/11/29 04:18:56;;;;;;;6.80;2.60;;;;;;;9.65;50.95;97697.48;108142;1254;73055;-67
2023/11/29 04:21:25;;;;;;;8.00;4.80;;;;;;;9.86;50.51;97689.67;108078;1254;71123;-67
2023/11/29 04:23:54;;;;;;;4.40;3.30;;;;;;;9.64;50.91;97693.67;108129;1254;72684;-66
2023/11/29 04:26:26;;;;;;;5.90;3.20;;;;;;;9.33;51.83;97691.41;108070;1253;61081;-66
2023/11/29 04:28:52;;;;;;;5.60;3.50;;;;;;;9.47;51.33;97689.13;108104;1254;60265;-66
2023/11/29 04:31:19;;;;;;;3.70;2.80;;;;;;;9.61;51.10;97687.83;108145;1254;73104;-67
2023/11/29 04:33:46;;;;;;;3.60;2.80;;;;;;;9.54;51.33;97681.11;108135;1253;70186;-66
2023/11/29 04:36:12;;;;;;;3.10;2.10;;;;;;;9.42;51.46;97680.41;108098;1253;72663;-67
2023/11/29 04:38:39;;;;;;;2.60;2.20;;;;;;;9.26;51.84;97675.21;108098;1254;59732;-67
2023/11/29 04:41:07;;;;;;;2.00;1.70;;;;;;;9.44;51.64;97672.17;108124;1254;59605;-67
2023/11/29 04:43:34;;;;;;;5.00;2.50;;;;;;;9.43;51.51;97667.38;108084;1253;72897;-66
2023/11/29 04:46:02;;;;;;;4.30;2.40;;;;;;;9.64;50.97;97659.55;108058;1254;70171;-66
2023/11/29 04:48:30;;;;;;;2.90;2.30;;;;;;;9.68;50.92;97662.56;108084;1254;72700;-66
2023/11/29 04:50:57;;;;;;;17.80;5.00;;;;;;;9.76;50.65;97657.80;108076;1257;60800;-66
2023/11/29 04:53:23;;;;;;;7.80;3.20;;;;;;;9.70;50.87;97658.38;108136;1253;60363;-66
2023/11/29 04:55:52;;;;;;;6.50;2.90;;;;;;;9.77;50.75;97651.77;108068;1257;73511;-66
2023/11/29 04:58:19;;;;;;;6.90;3.10;;;;;;;9.85;50.61;97647.84;108051;1254;69056;-66
2023/11/29 05:00:47;;;;;;;4.10;2.90;;;;;;;9.62;51.01;97645.86;108096;1254;72217;-66
2023/11/29 05:03:15;;;;;;;3.90;2.70;;;;;;;9.74;50.84;97638.70;108150;1253;61059;-66
2023/11/29 05:05:42;;;;;;;2.70;2.20;;;;;;;9.53;51.24;97636.40;108186;1254;59595;-66
2023/11/29 05:08:09;;;;;;;3.00;2.20;;;;;;;9.69;50.97;97635.41;108168;1254;73091;-66
2023/11/29 05:10:37;;;;;;;4.20;2.70;;;;;;;9.70;50.85;97633.02;108245;1254;69453;-66
2023/11/29 05:13:04;;;;;;;3.30;2.70;;;;;;;9.73;50.75;97626.16;108269;1253;71312;-66
2023/11/29 05:15:30;;;;;;;3.80;2.60;;;;;;;9.78;50.68;97624.55;108198;1254;60913;-66
2023/11/29 05:18:04;;;;;;;3.20;2.50;;;;;;;9.88;50.31;97615.95;108265;1253;60068;-67
2023/11/29 05:20:31;;;;;;;;;;;;;;;9.80;50.51;97615.27;108230;1252;71706;-67
2023/11/29 05:22:58;;;;;;;3.90;2.90;;;;;;;9.36;51.50;97618.33;108183;1254;70293;-66
2023/11/29 05:25:25;;;;;;;3.30;2.10;;;;;;;9.75;50.74;97613.06;108206;1253;72435;-67
2023/11/29 05:27:51;;;;;;;4.30;2.70;;;;;;;9.75;50.64;97609.50;108168;1254;59862;-67
2023/11/29 05:30:18;;;;;;;3.40;2.90;;;;;;;9.86;50.44;97603.27;108095;1253;59390;-66
2023/11/29 05:32:45;;;;;;;4.50;2.70;;;;;;;9.88;50.27;97607.11;108254;1253;73150;-67
2023/11/29 05:35:13;;;;;;;4.10;2.90;;;;;;;9.94;50.29;97602.73;108394;1253;70612;-67
2023/11/29 05:37:41;;;;;;;2.30;1.80;;;;;;;9.90;50.42;97599.83;108249;1254;74616;-67
2023/11/29 05:40:08;;;;;;;5.80;3.40;;;;;;;9.57;51.16;97600.70;108219;1253;61019;-67
2023/11/29 05:42:35;;;;;;;3.60;3.00;;;;;;;9.56;51.17;97593.55;108177;1252;60245;-65
2023/11/29 05:45:03;;;;;;;6.40;4.30;;;;;;;9.88;50.74;97592.63;108214;1253;71681;-66
2023/11/29 05:47:32;;;;;;;4.60;3.60;;;;;;;9.81;50.87;97585.05;108262;1253;70341;-64
2023/11/29 05:50:02;;;;;;;6.50;4.20;;;;;;;9.79;51.08;97583.08;108235;1253;72594;-67
2023/11/29 05:52:29;;;;;;;8.60;5.40;;;;;;;10.13;50.31;97578.16;108193;1253;59748;-66
2023/11/29 05:54:56;;;;;;;8.30;5.70;;;;;;;10.13;50.31;97575.86;108146;1254;59640;-67
2023/11/29 05:57:23;;;;;;;9.20;5.50;;;;;;;10.17;50.23;97572.55;108218;1252;72850;-67
2023/11/29 05:59:50;;;;;;;9.40;6.30;;;;;;;10.27;50.07;97572.34;108270;1252;70201;-66
2023/11/29 06:02:17;;;;;;;5.50;4.50;;;;;;;10.22;50.22;97574.27;108060;1254;72878;-65
2023/11/29 06:04:44;;;;;;;6.30;4.70;;;;;;;10.07;50.63;97568.23;108007;1254;61190;-66
2023/11/29 06:07:10;;;;;;;7.50;5.30;;;;;;;10.05;50.75;97570.48;108043;1254;60346;-66
2023/11/29 06:09:39;;;;;;;11.50;6.00;;;;;;;10.15;50.61;97563.56;108009;1254;73005;-66
2023/11/29 06:12:07;;;;;;;8.40;6.20;;;;;;;9.95;51.10;97565.98;108053;1253;68872;-67
2023/11/29 06:14:34;;;;;;;13.00;7.90;;;;;;;9.92;51.23;97556.59;108143;1253;72755;-67
2023/11/29 06:17:01;;;;;;;7.90;5.00;;;;;;;9.74;51.81;97560.89;108116;1253;60610;-67
2023/11/29 06:19:28;;;;;;;7.60;5.20;;;;;;;9.80;51.78;97556.75;108117;1254;60295;-67
2023/11/29 06:21:55;;;;;;;8.70;6.10;;;;;;;9.69;52.21;97557.59;108169;1253;72892;-67
2023/11/29 06:24:22;;;;;;;8.40;5.50;;;;;;;9.85;51.87;97556.23;108108;1254;70002;-67
2023/11/29 06:26:49;;;;;;;7.80;5.90;;;;;;;10.09;51.43;97554.55;108080;1254;72453;-67
2023/11/29 06:29:16;;;;;;;10.00;6.50;;;;;;;10.17;51.28;97555.55;108067;1254;59783;-67
2023/11/29 06:31:42;;;;;;;9.80;6.80;;;;;;;10.34;50.92;97553.89;108044;1253;60189;-66
2023/11/29 06:34:09;;;;;;;9.20;6.20;;;;;;;10.50;50.76;97558.80;108139;1253;73130;-67
2023/11/29 06:36:36;;;;;;;8.90;5.70;;;;;;;10.32;51.28;97562.67;108057;1254;70304;-67
2023/11/29 06:39:03;;;;;;;11.90;8.40;;;;;;;10.29;51.19;97558.84;108079;1254;72688;-67
2023/11/29 06:41:31;;;;;;;6.80;5.70;;;;;;;10.33;51.16;97555.42;108137;1253;60397;-67
2023/11/29 06:43:57;;;;;;;9.20;7.10;;;;;;;10.34;51.33;97553.62;108084;1253;60415;-66
2023/11/29 06:46:24;;;;;;;7.20;5.70;;;;;;;10.42;51.10;97550.52;108105;1253;72684;-67
2023/11/29 06:48:50;;;;;;;10.30;6.40;;;;;;;10.41;51.29;97553.69;108109;1254;70238;-67
2023/11/29 06:51:17;;;;;;;11.20;6.50;;;;;;;10.63;50.69;97551.31;108098;1253;72670;-67
2023/11/29 06:53:45;;;;;;;10.80;6.90;;;;;;;10.83;50.44;97552.26;108106;1254;60899;-67
2023/11/29 06:56:11;;;;;;;34.30;18.10;;;;;;;10.56;51.10;97552.42;108076;1254;60155;-67
2023/11/29 06:58:38;;;;;;;457.10;173.90;;;;;;;10.77;50.68;97554.66;108008;1253;60441;-67
2023/11/29 07:01:07;;;;;;;64.20;26.00;;;;;;;10.90;50.49;97558.18;108096;1253;70111;-67
2023/11/29 07:03:34;;;;;;;149.50;59.50;;;;;;;10.98;50.24;97551.38;108263;1253;72604;-67
2023/11/29 07:06:00;;;;;;;34.80;17.90;;;;;;;11.03;50.25;97545.90;108232;1254;60570;-67
2023/11/29 07:08:27;;;;;;;89.80;46.00;;;;;;;11.10;50.19;97551.28;108243;1253;60315;-66
2023/11/29 07:10:53;;;;;;;57.70;32.10;;;;;;;11.09;50.23;97551.54;108233;1254;73797;-67
2023/11/29 07:13:20;;;;;;;49.00;25.60;;;;;;;11.05;50.29;97552.54;108254;1254;68983;-67
2023/11/29 07:15:46;;;;;;;85.20;45.50;;;;;;;10.95;50.60;97555.64;108261;1253;71310;-67
2023/11/29 07:18:13;;;;;;;41.30;25.70;;;;;;;11.11;50.34;97547.55;108255;1252;60843;-67
2023/11/29 07:20:41;;;;;;;20.10;12.30;;;;;;;11.01;50.43;97553.56;108255;1256;60099;-67
2023/11/29 07:23:13;;;;;;;17.90;11.10;;;;;;;11.10;50.46;97554.27;108289;1252;72359;-67
2023/11/29 07:25:39;;;;;;;19.00;13.50;;;;;;;11.27;50.03;97555.04;108208;1254;69135;-68
2023/11/29 07:28:06;;;;;;;20.80;14.60;;;;;;;11.48;49.65;97549.83;108286;1254;72447;-68
2023/11/29 07:30:33;;;;;;;15.00;10.30;;;;;;;11.53;49.55;97551.89;108331;1252;60418;-67
2023/11/29 07:33:00;;;;;;;16.30;10.20;;;;;;;11.31;50.12;97554.86;108297;1253;60316;-67
2023/11/29 07:35:26;;;;;;;16.80;11.40;;;;;;;11.42;49.94;97551.49;108292;1252;73515;-67
2023/11/29 07:37:53;;;;;;;17.80;11.60;;;;;;;11.36;50.18;97549.23;108321;1252;70227;-68
2023/11/29 07:40:22;;;;;;;21.70;11.90;;;;;;;11.36;50.34;97557.11;108214;1253;72744;-67
2023/11/29 07:42:49;;;;;;;25.50;14.10;;;;;;;11.27;50.47;97556.44;108238;1253;60437;-67
2023/11/29 07:45:15;;;;;;;17.00;11.50;;;;;;;11.22;50.58;97554.16;108251;1252;60146;-68
2023/11/29 07:47:44;;;;;;;59.00;22.10;;;;;;;11.24;50.48;97559.45;108210;1254;73735;-67
2023/11/29 07:50:14;;;;;;;105.10;37.20;;;;;;;11.11;50.81;97556.50;108337;1256;70346;-68
2023/11/29 07:52:41;;;;;;;120.20;39.20;;;;;;;11.33;50.37;97556.64;108251;1256;70276;-67
2023/11/29 07:55:08;;;;;;;45.70;19.70;;;;;;;11.27;50.39;97558.57;108199;1253;61427;-68
2023/11/29 07:57:34;;;;;;;30.20;16.70;;;;;;;11.41;50.26;97561.30;108306;1252;60420;-68
2023/11/29 08:00:08;;;;;;;30.80;16.90;;;;;;;11.33;50.45;97563.48;108310;1253;60309;-67
2023/11/29 08:02:39;;;;;;;29.60;18.70;;;;;;;11.43;50.29;97558.41;108194;1253;70462;-67
2023/11/29 08:05:06;;;;;;;23.10;13.20;;;;;;;11.45;50.29;97557.08;108202;1252;72469;-68
2023/11/29 08:07:33;;;;;;;29.40;17.90;;;;;;;11.21;50.77;97554.63;108220;1252;60994;-68
2023/11/29 08:10:02;;;;;;;26.50;16.70;;;;;;;11.33;50.61;97548.39;108228;1254;60331;-68
2023/11/29 08:12:29;;;;;;;28.50;17.90;;;;;;;11.25;50.69;97548.84;108182;1253;72866;-68
2023/11/29 08:14:56;;;;;;;30.40;20.40;;;;;;;11.04;51.28;97548.42;108198;1253;70156;-67
2023/11/29 08:17:23;;;;;;;30.10;18.80;;;;;;;11.20;50.92;97542.24;108163;1254;72575;-68
2023/11/29 08:19:50;;;;;;;39.90;22.80;;;;;;;11.16;50.93;97542.36;108150;1254;61209;-67
2023/11/29 08:22:16;;;;;;;34.80;20.90;;;;;;;11.02;51.44;97542.67;108192;1253;60386;-68
2023/11/29 08:24:43;;;;;;;44.60;23.70;;;;;;;11.43;50.62;97539.98;108161;1253;73900;-67
2023/11/29 08:27:10;;;;;;;39.70;23.30;;;;;;;11.60;50.32;97542.83;108150;1253;70281;-67
2023/11/29 08:29:39;;;;;;;43.10;23.40;;;;;;;11.40;50.77;97543.60;108184;1254;72643;-68
2023/11/29 08:32:06;;;;;;;42.40;23.40;;;;;;;11.53;50.49;97534.25;108180;1253;60459;-67
2023/11/29 08:34:33;;;;;;;45.40;24.80;;;;;;;11.63;50.23;97543.16;108134;1253;60323;-67
2023/11/29 08:37:00;;;;;;;46.20;24.20;;;;;;;11.55;50.47;97547.65;108172;1253;60334;-67
2023/11/29 08:39:27;;;;;;;51.40;27.90;;;;;;;11.53;50.30;97549.78;108066;1257;70335;-67
2023/11/29 08:41:53;;;;;;;54.90;26.80;;;;;;;11.58;50.19;97551.66;108172;1254;72544;-67
2023/11/29 08:44:20;;;;;;;55.80;28.70;;;;;;;11.64;50.05;97551.69;108136;1253;60434;-67
2023/11/29 08:46:47;;;;;;;60.40;30.50;;;;;;;11.47;50.50;97554.65;108194;1253;60533;-67
2023/11/29 08:49:15;;;;;;;52.70;27.50;;;;;;;11.16;51.21;97562.43;108147;1252;73661;-68
2023/11/29 08:51:42;;;;;;;53.40;26.10;;;;;;;10.87;52.03;97560.88;108135;1254;70039;-67
2023/11/29 08:54:09;;;;;;;54.60;26.50;;;;;;;10.87;52.30;97562.97;108149;1254;72490;-67
2023/11/29 08:56:37;;;;;;;60.70;29.30;;;;;;;10.91;52.38;97567.75;108158;1254;60332;-68
2023/11/29 08:59:04;;;;;;;62.70;30.50;;;;;;;10.96;52.19;97568.39;108137;1253;60309;-67
2023/11/29 09:01:31;;;;;;;51.40;25.20;;;;;;;10.97;52.30;97572.15;108090;1253;73823;-67
2023/11/29 09:03:58;;;;;;;52.70;26.90;;;;;;;10.78;52.65;97573.52;108300;1253;68856;-67
2023/11/29 09:06:25;;;;;;;47.00;24.20;;;;;;;10.86;52.62;97579.52;108234;1252;72660;-67
2023/11/29 09:08:53;;;;;;;38.80;20.30;;;;;;;10.99;52.38;97579.55;108253;1252;61612;-67
2023/11/29 09:11:19;;;;;;;46.40;22.80;;;;;;;11.24;51.66;97576.67;108247;1254;60242;-68
2023/11/29 09:13:48;;;;;;;40.70;20.10;;;;;;;11.14;51.76;97579.06;108213;1252;73651;-67
2023/11/29 09:16:15;;;;;;;36.80;20.10;;;;;;;11.01;52.02;97577.47;108290;1254;69146;-67
2023/11/29 09:18:43;;;;;;;42.10;21.50;;;;;;;11.19;51.66;97572.55;108255;1254;72493;-68
2023/11/29 09:21:10;;;;;;;36.50;19.00;;;;;;;10.74;52.58;97579.59;108275;1252;60348;-68
2023/11/29 09:23:37;;;;;;;43.70;21.70;;;;;;;10.74;52.43;97581.05;108247;1253;60325;-68
2023/11/29 09:26:04;;;;;;;31.50;18.20;;;;;;;11.05;51.67;97588.56;108263;1254;74111;-68
2023/11/29 09:28:31;;;;;;;34.70;17.90;;;;;;;11.04;51.56;97587.42;108283;1254;68879;-69
2023/11/29 09:31:00;;;;;;;34.30;18.90;;;;;;;11.04;51.43;97587.90;108146;1253;72654;-67
2023/11/29 09:33:27;;;;;;;26.90;14.00;;;;;;;11.02;51.43;97591.40;108330;1252;60331;-68
2023/11/29 09:35:55;;;;;;;25.50;13.90;;;;;;;10.75;51.62;97592.48;108424;1256;60577;-68
2023/11/29 09:38:21;;;;;;;23.50;12.40;;;;;;;10.62;51.80;97594.21;108228;1252;73702;-67
2023/11/29 09:40:48;;;;;;;18.80;11.40;;;;;;;10.43;51.94;97596.08;108233;1253;70234;-66
2023/11/29 09:43:15;;;;;;;16.60;9.40;;;;;;;10.37;51.47;97598.80;108107;1253;72662;-68
2023/11/29 09:45:43;;;;;;;14.00;7.20;;;;;;;10.38;50.98;97601.70;108192;1252;60309;-67
2023/11/29 09:48:10;;;;;;;14.30;8.60;;;;;;;10.14;51.49;97606.33;108223;1252;60335;-67
2023/11/29 09:50:36;;;;;;;14.80;8.80;;;;;;;10.36;50.73;97611.61;108300;1253;73736;-67
2023/11/29 09:53:03;;;;;;;15.20;8.90;;;;;;;10.61;50.24;97613.80;108164;1254;70382;-68
2023/11/29 09:55:30;;;;;;;14.10;8.90;;;;;;;10.66;49.87;97616.04;108282;1252;71145;-68
2023/11/29 09:57:58;;;;;;;18.50;10.60;;;;;;;10.60;49.99;97632.30;108263;1256;60352;-67
2023/11/29 10:00:25;;;;;;;15.40;9.40;;;;;;;10.43;50.17;97642.04;108310;1253;60323;-67
2023/11/29 10:02:52;;;;;;;12.50;9.00;;;;;;;10.44;49.78;97641.93;108150;1254;73689;-67
2023/11/29 10:05:18;;;;;;;11.80;8.10;;;;;;;10.35;49.71;97638.92;108083;1253;70904;-65
2023/11/29 10:07:46;;;;;;;17.10;9.50;;;;;;;10.31;49.50;97638.89;108226;1253;72483;-66
2023/11/29 10:10:13;;;;;;;15.30;9.40;;;;;;;10.40;49.20;97646.92;108197;1252;61298;-66
2023/11/29 10:12:42;;;;;;;12.90;8.90;;;;;;;10.63;48.53;97647.46;108233;1252;60296;-66
2023/11/29 10:15:11;;;;;;;15.50;9.50;;;;;;;10.72;48.05;97654.16;108222;1253;72551;-67
2023/11/29 10:17:42;;;;;;;14.70;9.10;;;;;;;10.56;48.05;97657.67;108189;1252;69492;-67
2023/11/29 10:20:12;;;;;;;12.80;8.60;;;;;;;10.46;48.02;97657.38;108134;1256;72681;-66
2023/11/29 10:22:39;;;;;;;12.70;7.60;;;;;;;10.29;48.35;97664.63;108156;1253;60943;-66
2023/11/29 10:25:17;;;;;;;15.30;9.50;;;;;;;9.74;49.24;97675.67;108235;1253;60412;-66
2023/11/29 10:27:45;;;;;;;16.00;10.30;;;;;;;9.68;49.47;97677.66;108242;1256;74092;-66
2023/11/29 10:30:15;;;;;;;15.80;9.70;;;;;;;9.62;49.83;97685.79;108217;1254;70403;-67
2023/11/29 10:32:43;;;;;;;21.30;11.20;;;;;;;9.63;49.88;97691.85;108184;1254;72540;-67
2023/11/29 10:35:13;;;;;;;20.00;11.90;;;;;;;9.95;49.26;97693.08;108151;1253;61257;-67
2023/11/29 10:37:44;;;;;;;15.80;10.50;;;;;;;9.85;49.41;97695.01;108023;1254;61331;-67
2023/11/29 10:40:14;;;;;;;16.80;11.40;;;;;;;9.83;49.42;97699.36;108196;1253;72813;-67
2023/11/29 10:42:43;;;;;;;16.80;11.20;;;;;;;9.72;49.56;97704.69;108026;1253;70089;-67
2023/11/29 10:45:14;;;;;;;15.60;10.30;;;;;;;9.56;49.94;97704.98;108152;1254;71133;-67
2023/11/29 10:47:43;;;;;;;17.90;11.70;;;;;;;9.66;49.89;97705.31;108224;1253;60283;-67
2023/11/29 10:50:10;;;;;;;20.30;11.20;;;;;;;9.80;49.54;97711.68;108211;1254;59786;-67
2023/11/29 10:52:39;;;;;;;18.30;11.60;;;;;;;9.71;49.45;97714.77;108064;1254;72442;-67
2023/11/29 10:55:06;;;;;;;21.00;12.00;;;;;;;9.65;49.33;97717.16;108126;1253;70171;-67
2023/11/29 10:57:37;;;;;;;21.30;10.80;;;;;;;9.49;49.45;97724.38;108063;1252;72474;-67
2023/11/29 11:00:07;;;;;;;18.80;11.60;;;;;;;9.28;49.56;97727.98;108062;1253;61272;-67
2023/11/29 11:02:34;;;;;;;19.20;9.90;;;;;;;9.19;49.51;97732.09;108288;1254;60475;-67
2023/11/29 11:05:05;;;;;;;17.20;10.40;;;;;;;9.00;49.44;97736.75;108294;1254;74310;-67
2023/11/29 11:07:42;;;;;;;18.10;10.80;;;;;;;9.26;49.13;97733.52;108321;1253;71648;-67
2023/11/29 11:10:16;;;;;;;19.10;11.40;;;;;;;9.25;49.47;97740.10;108353;1252;71480;-68
2023/11/29 11:12:44;;;;;;;20.80;11.60;;;;;;;8.77;50.46;97745.45;108216;1254;61038;-67
2023/11/29 11:15:13;;;;;;;19.80;11.50;;;;;;;8.50;50.98;97752.73;108182;1254;60617;-67
2023/11/29 11:17:44;;;;;;;17.10;9.40;;;;;;;8.39;50.75;97764.41;108184;1256;73912;-67
2023/11/29 11:20:11;;;;;;;18.10;11.30;;;;;;;7.93;50.81;97773.01;108074;1254;70342;-67
2023/11/29 11:22:42;;;;;;;13.60;7.30;;;;;;;7.99;50.39;97783.95;108220;1252;71516;-67
2023/11/29 11:25:12;;;;;;;20.00;10.90;;;;;;;7.87;50.56;97783.48;108180;1254;61113;-67